sensor_id;sensor_type;location;lat;lon;timestamp;pressure;altitude;pressure_sealevel;temperature;humidity
69842;BME280;57138;51.326;-0.068;2023-04-05T00:00:57;100618.44;;;4.21;63.18
69842;BME280;57138;51.326;-0.068;2023-04-05T00:03:23;100622.72;;;4.22;62.68
69842;BME280;57138;51.326;-0.068;2023-04-05T00:05:49;100619.25;;;4.22;63.41
69842;BME280;57138;51.326;-0.068;2023-04-05T00:08:17;100606.72;;;4.14;63.58
69842;BME280;57138;51.326;-0.068;2023-04-05T00:10:48;100614.50;;;4.16;63.45
69842;BME280;57138;51.326;-0.068;2023-04-05T00:13:15;100606.03;;;4.12;63.61
69842;BME280;57138;51.326;-0.068;2023-04-05T00:15:41;100613.97;;;4.12;64.10
69842;BME280;57138;51.326;-0.068;2023-04-05T00:18:06;100598.63;;;4.06;64.18
69842;BME280;57138;51.326;-0.068;2023-04-05T00:20:31;100602.25;;;4.05;64.20
69842;BME280;57138;51.326;-0.068;2023-04-05T00:22:58;100594.84;;;3.99;64.08
69842;BME280;57138;51.326;-0.068;2023-04-05T00:25:24;100597.22;;;4.02;63.76
69842;BME280;57138;51.326;-0.068;2023-04-05T00:27:49;100598.34;;;3.99;64.01
69842;BME280;57138;51.326;-0.068;2023-04-05T00:30:15;100587.31;;;3.94;64.47
69842;BME280;57138;51.326;-0.068;2023-04-05T00:32:47;100580.50;;;3.91;64.39
69842;BME280;57138;51.326;-0.068;2023-04-05T00:35:14;100573.25;;;3.84;64.50
69842;BME280;57138;51.326;-0.068;2023-04-05T00:37:39;100575.63;;;3.87;64.52
69842;BME280;57138;51.326;-0.068;2023-04-05T00:40:05;100572.41;;;3.83;64.47
69842;BME280;57138;51.326;-0.068;2023-04-05T00:42:31;100562.09;;;3.80;64.65
69842;BME280;57138;51.326;-0.068;2023-04-05T00:44:56;100560.44;;;3.79;64.94
69842;BME280;57138;51.326;-0.068;2023-04-05T00:47:22;100562.34;;;3.77;65.01
69842;BME280;57138;51.326;-0.068;2023-04-05T00:49:47;100551.34;;;3.72;64.60
69842;BME280;57138;51.326;-0.068;2023-04-05T00:52:14;100560.97;;;3.73;64.69
69842;BME280;57138;51.326;-0.068;2023-04-05T00:54:40;100562.91;;;3.71;65.22
69842;BME280;57138;51.326;-0.068;2023-04-05T00:57:07;100560.56;;;3.68;65.16
69842;BME280;57138;51.326;-0.068;2023-04-05T00:59:33;100568.50;;;3.68;65.71
69842;BME280;57138;51.326;-0.068;2023-04-05T01:02:09;100559.84;;;3.66;65.77
69842;BME280;57138;51.326;-0.068;2023-04-05T01:04:40;100549.53;;;3.63;66.26
69842;BME280;57138;51.326;-0.068;2023-04-05T01:07:16;100564.16;;;3.67;66.40
69842;BME280;57138;51.326;-0.068;2023-04-05T01:09:54;100558.88;;;3.67;67.38
69842;BME280;57138;51.326;-0.068;2023-04-05T01:12:23;100567.50;;;3.69;66.88
69842;BME280;57138;51.326;-0.068;2023-04-05T01:14:51;100553.31;;;3.70;67.46
69842;BME280;57138;51.326;-0.068;2023-04-05T01:17:19;100554.97;;;3.71;67.46
69842;BME280;57138;51.326;-0.068;2023-04-05T01:19:49;100557.59;;;3.71;67.57
69842;BME280;57138;51.326;-0.068;2023-04-05T01:30:34;100535.34;;;3.73;68.80
69842;BME280;57138;51.326;-0.068;2023-04-05T01:35:58;100522.00;;;3.75;68.78
69842;BME280;57138;51.326;-0.068;2023-04-05T01:38:27;100520.03;;;3.77;68.56
69842;BME280;57138;51.326;-0.068;2023-04-05T01:40:54;100507.09;;;3.74;68.32
69842;BME280;57138;51.326;-0.068;2023-04-05T01:43:20;100510.44;;;3.76;68.54
69842;BME280;57138;51.326;-0.068;2023-04-05T01:45:47;100508.50;;;3.78;68.96
69842;BME280;57138;51.326;-0.068;2023-04-05T01:48:13;100507.53;;;3.79;69.29
69842;BME280;57138;51.326;-0.068;2023-04-05T01:50:39;100502.09;;;3.81;68.82
69842;BME280;57138;51.326;-0.068;2023-04-05T01:53:06;100498.59;;;3.80;69.58
69842;BME280;57138;51.326;-0.068;2023-04-05T01:55:32;100490.53;;;3.72;69.60
69842;BME280;57138;51.326;-0.068;2023-04-05T01:57:57;100495.00;;;3.81;70.08
69842;BME280;57138;51.326;-0.068;2023-04-05T02:00:22;100494.19;;;3.81;70.23
69842;BME280;57138;51.326;-0.068;2023-04-05T02:02:48;100491.53;;;3.81;70.43
69842;BME280;57138;51.326;-0.068;2023-04-05T02:05:13;100492.22;;;3.83;70.54
69842;BME280;57138;51.326;-0.068;2023-04-05T02:07:39;100482.47;;;3.83;70.49
69842;BME280;57138;51.326;-0.068;2023-04-05T02:10:04;100483.03;;;3.87;71.32
69842;BME280;57138;51.326;-0.068;2023-04-05T02:12:30;100468.56;;;3.81;71.65
69842;BME280;57138;51.326;-0.068;2023-04-05T02:14:56;100481.09;;;3.89;71.47
69842;BME280;57138;51.326;-0.068;2023-04-05T02:17:23;100470.50;;;3.89;72.29
69842;BME280;57138;51.326;-0.068;2023-04-05T02:19:48;100464.38;;;3.88;72.16
69842;BME280;57138;51.326;-0.068;2023-04-05T02:22:17;100467.72;;;3.90;72.97
69842;BME280;57138;51.326;-0.068;2023-04-05T02:24:42;100471.91;;;3.93;72.77
69842;BME280;57138;51.326;-0.068;2023-04-05T02:27:08;100465.47;;;3.95;73.22
69842;BME280;57138;51.326;-0.068;2023-04-05T02:29:33;100466.06;;;3.99;73.08
69842;BME280;57138;51.326;-0.068;2023-04-05T02:31:59;100453.78;;;3.98;73.64
69842;BME280;57138;51.326;-0.068;2023-04-05T02:34:24;100460.78;;;3.99;73.32
69842;BME280;57138;51.326;-0.068;2023-04-05T02:36:52;100465.63;;;4.04;73.72
69842;BME280;57138;51.326;-0.068;2023-04-05T02:39:18;100466.31;;;4.06;73.59
69842;BME280;57138;51.326;-0.068;2023-04-05T02:41:43;100467.16;;;4.06;74.11
69842;BME280;57138;51.326;-0.068;2023-04-05T02:44:09;100438.75;;;3.99;74.22
69842;BME280;57138;51.326;-0.068;2023-04-05T02:46:34;100456.44;;;4.08;74.42
69842;BME280;57138;51.326;-0.068;2023-04-05T02:49:00;100450.72;;;4.03;74.12
69842;BME280;57138;51.326;-0.068;2023-04-05T02:51:25;100452.41;;;4.04;74.61
69842;BME280;57138;51.326;-0.068;2023-04-05T02:53:51;100465.78;;;4.12;74.14
69842;BME280;57138;51.326;-0.068;2023-04-05T02:56:17;100455.88;;;4.14;74.62
69842;BME280;57138;51.326;-0.068;2023-04-05T02:58:43;100457.41;;;4.17;74.25
69842;BME280;57138;51.326;-0.068;2023-04-05T03:01:09;100462.69;;;4.17;73.72
69842;BME280;57138;51.326;-0.068;2023-04-05T03:03:35;100461.16;;;4.14;75.33
69842;BME280;57138;51.326;-0.068;2023-04-05T03:06:03;100458.22;;;4.17;74.84
69842;BME280;57138;51.326;-0.068;2023-04-05T03:08:39;100459.22;;;4.16;74.68
69842;BME280;57138;51.326;-0.068;2023-04-05T03:11:09;100455.44;;;4.19;74.55
69842;BME280;57138;51.326;-0.068;2023-04-05T03:13:34;100451.28;;;4.16;74.62
69842;BME280;57138;51.326;-0.068;2023-04-05T03:16:01;100463.25;;;4.20;74.76
69842;BME280;57138;51.326;-0.068;2023-04-05T03:18:26;100455.59;;;4.17;74.42
69842;BME280;57138;51.326;-0.068;2023-04-05T03:20:54;100459.63;;;4.21;74.31
69842;BME280;57138;51.326;-0.068;2023-04-05T03:23:27;100460.59;;;4.20;74.23
69842;BME280;57138;51.326;-0.068;2023-04-05T03:26:01;100459.63;;;4.21;73.88
69842;BME280;57138;51.326;-0.068;2023-04-05T03:28:28;100455.16;;;4.22;73.86
69842;BME280;57138;51.326;-0.068;2023-04-05T03:30:54;100447.50;;;4.19;74.24
69842;BME280;57138;51.326;-0.068;2023-04-05T03:33:20;100445.41;;;4.22;74.16
69842;BME280;57138;51.326;-0.068;2023-04-05T03:35:46;100450.69;;;4.22;73.72
69842;BME280;57138;51.326;-0.068;2023-04-05T03:38:12;100448.75;;;4.24;74.27
69842;BME280;57138;51.326;-0.068;2023-04-05T03:40:38;100433.16;;;4.21;73.87
69842;BME280;57138;51.326;-0.068;2023-04-05T03:43:03;100434.81;;;4.22;73.90
69842;BME280;57138;51.326;-0.068;2023-04-05T03:45:29;100435.66;;;4.23;73.47
69842;BME280;57138;51.326;-0.068;2023-04-05T03:47:55;100433.72;;;4.25;73.09
69842;BME280;57138;51.326;-0.068;2023-04-05T03:50:20;100425.63;;;4.26;73.30
69842;BME280;57138;51.326;-0.068;2023-04-05T03:52:46;100412.56;;;4.15;73.23
69842;BME280;57138;51.326;-0.068;2023-04-05T03:55:11;100436.34;;;4.25;73.09
69842;BME280;57138;51.326;-0.068;2023-04-05T03:57:41;100413.25;;;4.17;72.85
69842;BME280;57138;51.326;-0.068;2023-04-05T04:00:07;100416.59;;;4.19;73.35
69842;BME280;57138;51.326;-0.068;2023-04-05T04:02:46;100422.56;;;4.21;73.34
69842;BME280;57138;51.326;-0.068;2023-04-05T04:05:13;100419.94;;;4.21;72.40
69842;BME280;57138;51.326;-0.068;2023-04-05T04:07:39;100413.63;;;4.22;72.87
69842;BME280;57138;51.326;-0.068;2023-04-05T04:10:06;100399.19;;;4.17;72.39
69842;BME280;57138;51.326;-0.068;2023-04-05T04:12:32;100417.28;;;4.21;72.62
69842;BME280;57138;51.326;-0.068;2023-04-05T04:14:58;100409.34;;;4.21;72.42
69842;BME280;57138;51.326;-0.068;2023-04-05T04:17:27;100407.38;;;4.23;72.20
69842;BME280;57138;51.326;-0.068;2023-04-05T04:19:53;100410.03;;;4.23;72.35
69842;BME280;57138;51.326;-0.068;2023-04-05T04:22:19;100398.06;;;4.19;72.49
69842;BME280;57138;51.326;-0.068;2023-04-05T04:24:45;100395.28;;;4.21;71.88
69842;BME280;57138;51.326;-0.068;2023-04-05T04:27:16;100392.34;;;4.14;72.36
69842;BME280;57138;51.326;-0.068;2023-04-05T04:29:42;100400.72;;;4.19;72.06
69842;BME280;57138;51.326;-0.068;2023-04-05T04:32:15;100406.97;;;4.18;71.99
69842;BME280;57138;51.326;-0.068;2023-04-05T04:34:41;100394.03;;;4.15;71.85
69842;BME280;57138;51.326;-0.068;2023-04-05T04:37:13;100397.34;;;4.17;72.12
69842;BME280;57138;51.326;-0.068;2023-04-05T04:39:44;100398.34;;;4.16;71.95
69842;BME280;57138;51.326;-0.068;2023-04-05T04:42:11;100396.53;;;4.17;71.62
69842;BME280;57138;51.326;-0.068;2023-04-05T04:44:37;100412.28;;;4.18;72.35
69842;BME280;57138;51.326;-0.068;2023-04-05T04:47:03;100412.28;;;4.18;72.12
69842;BME280;57138;51.326;-0.068;2023-04-05T04:49:37;100408.22;;;4.14;71.94
69842;BME280;57138;51.326;-0.068;2023-04-05T04:52:03;100407.81;;;4.19;72.50
69842;BME280;57138;51.326;-0.068;2023-04-05T04:54:29;100408.22;;;4.14;72.02
69842;BME280;57138;51.326;-0.068;2023-04-05T04:56:54;100396.41;;;4.08;72.12
69842;BME280;57138;51.326;-0.068;2023-04-05T04:59:21;100414.25;;;4.16;72.72
69842;BME280;57138;51.326;-0.068;2023-04-05T05:01:50;100397.81;;;4.03;72.53
69842;BME280;57138;51.326;-0.068;2023-04-05T05:04:18;100410.63;;;4.07;73.35
69842;BME280;57138;51.326;-0.068;2023-04-05T05:06:43;100407.28;;;4.05;72.83
69842;BME280;57138;51.326;-0.068;2023-04-05T05:09:08;100416.06;;;4.06;72.73
69842;BME280;57138;51.326;-0.068;2023-04-05T05:11:34;100420.53;;;4.05;73.21
69842;BME280;57138;51.326;-0.068;2023-04-05T05:13:59;100418.97;;;4.03;72.83
69842;BME280;57138;51.326;-0.068;2023-04-05T05:16:25;100427.59;;;4.05;73.45
69842;BME280;57138;51.326;-0.068;2023-04-05T05:18:52;100416.63;;;4.00;73.46
69842;BME280;57138;51.326;-0.068;2023-04-05T05:21:18;100418.56;;;3.98;73.07
69842;BME280;57138;51.326;-0.068;2023-04-05T05:23:43;100423.88;;;3.98;73.25
69842;BME280;57138;51.326;-0.068;2023-04-05T05:26:09;100416.50;;;3.91;73.39
69842;BME280;57138;51.326;-0.068;2023-04-05T05:28:34;100427.91;;;3.92;73.50
69842;BME280;57138;51.326;-0.068;2023-04-05T05:30:59;100423.16;;;3.86;73.66
69842;BME280;57138;51.326;-0.068;2023-04-05T05:33:25;100421.63;;;3.83;73.59
69842;BME280;57138;51.326;-0.068;2023-04-05T05:35:50;100416.75;;;3.78;73.84
69842;BME280;57138;51.326;-0.068;2023-04-05T05:38:17;100425.41;;;3.81;74.25
69842;BME280;57138;51.326;-0.068;2023-04-05T05:40:43;100437.50;;;3.83;73.85
69842;BME280;57138;51.326;-0.068;2023-04-05T05:43:08;100426.09;;;3.83;73.88
69842;BME280;57138;51.326;-0.068;2023-04-05T05:45:37;100415.66;;;3.81;74.46
69842;BME280;57138;51.326;-0.068;2023-04-05T05:48:02;100427.63;;;3.85;74.24
69842;BME280;57138;51.326;-0.068;2023-04-05T05:50:28;100422.47;;;3.84;74.48
69842;BME280;57138;51.326;-0.068;2023-04-05T05:52:57;100423.16;;;3.86;74.70
69842;BME280;57138;51.326;-0.068;2023-04-05T05:55:22;100427.06;;;3.91;74.93
69842;BME280;57138;51.326;-0.068;2023-04-05T05:57:48;100423.44;;;3.92;74.81
69842;BME280;57138;51.326;-0.068;2023-04-05T06:00:14;100421.50;;;3.94;74.55
69842;BME280;57138;51.326;-0.068;2023-04-05T06:02:40;100416.06;;;3.96;75.00
69842;BME280;57138;51.326;-0.068;2023-04-05T06:05:05;100421.78;;;4.01;74.94
69842;BME280;57138;51.326;-0.068;2023-04-05T06:07:35;100418.69;;;4.06;74.39
69842;BME280;57138;51.326;-0.068;2023-04-05T06:10:00;100416.75;;;4.08;74.92
69842;BME280;57138;51.326;-0.068;2023-04-05T06:12:26;100423.72;;;4.09;75.09
69842;BME280;57138;51.326;-0.068;2023-04-05T06:14:51;100409.50;;;4.10;74.63
69842;BME280;57138;51.326;-0.068;2023-04-05T06:17:17;100409.91;;;4.15;74.67
69842;BME280;57138;51.326;-0.068;2023-04-05T06:19:42;100420.22;;;4.18;74.79
69842;BME280;57138;51.326;-0.068;2023-04-05T06:22:07;100421.75;;;4.21;74.52
69842;BME280;57138;51.326;-0.068;2023-04-05T06:24:33;100417.28;;;4.21;74.96
69842;BME280;57138;51.326;-0.068;2023-04-05T06:26:58;100414.63;;;4.21;74.57
69842;BME280;57138;51.326;-0.068;2023-04-05T06:29:23;100417.28;;;4.21;74.76
69842;BME280;57138;51.326;-0.068;2023-04-05T06:31:49;100417.28;;;4.21;74.48
69842;BME280;57138;51.326;-0.068;2023-04-05T06:34:14;100421.75;;;4.21;74.37
69842;BME280;57138;51.326;-0.068;2023-04-05T06:36:40;100422.56;;;4.21;75.15
69842;BME280;57138;51.326;-0.068;2023-04-05T06:39:05;100412.66;;;4.23;75.01
69842;BME280;57138;51.326;-0.068;2023-04-05T06:41:31;100412.66;;;4.23;74.97
69842;BME280;57138;51.326;-0.068;2023-04-05T06:43:56;100404.72;;;4.23;75.20
69842;BME280;57138;51.326;-0.068;2023-04-05T06:46:22;100409.47;;;4.29;75.61
69842;BME280;57138;51.326;-0.068;2023-04-05T06:48:47;100401.22;;;4.32;75.80
69842;BME280;57138;51.326;-0.068;2023-04-05T06:51:14;100405.09;;;4.48;75.52
69842;BME280;57138;51.326;-0.068;2023-04-05T06:53:39;100402.09;;;4.61;74.96
69842;BME280;57138;51.326;-0.068;2023-04-05T06:56:06;100388.56;;;4.74;74.16
69842;BME280;57138;51.326;-0.068;2023-04-05T06:58:32;100400.31;;;4.89;74.00
69842;BME280;57138;51.326;-0.068;2023-04-05T07:00:59;100381.03;;;4.97;74.26
69842;BME280;57138;51.326;-0.068;2023-04-05T07:03:25;100393.25;;;5.08;73.97
69842;BME280;57138;51.326;-0.068;2023-04-05T07:05:58;100400.00;;;5.20;73.36
69842;BME280;57138;51.326;-0.068;2023-04-05T07:08:25;100394.47;;;5.31;73.69
69842;BME280;57138;51.326;-0.068;2023-04-05T07:10:51;100385.19;;;5.45;73.66
69842;BME280;57138;51.326;-0.068;2023-04-05T07:13:18;100391.47;;;5.62;73.22
69842;BME280;57138;51.326;-0.068;2023-04-05T07:15:44;100395.34;;;5.68;72.32
69842;BME280;57138;51.326;-0.068;2023-04-05T07:18:10;100379.59;;;5.66;72.32
69842;BME280;57138;51.326;-0.068;2023-04-05T07:20:36;100373.81;;;5.71;72.37
69842;BME280;57138;51.326;-0.068;2023-04-05T07:23:02;100383.41;;;5.90;72.03
69842;BME280;57138;51.326;-0.068;2023-04-05T07:25:28;100390.50;;;5.99;72.19
69842;BME280;57138;51.326;-0.068;2023-04-05T07:27:53;100384.56;;;6.05;71.60
69842;BME280;57138;51.326;-0.068;2023-04-05T07:30:19;100371.28;;;6.05;71.50
69842;BME280;57138;51.326;-0.068;2023-04-05T07:32:45;100374.31;;;6.10;71.45
69842;BME280;57138;51.326;-0.068;2023-04-05T07:35:10;100374.53;;;6.17;71.21
69842;BME280;57138;51.326;-0.068;2023-04-05T07:37:36;100374.41;;;6.27;71.93
69842;BME280;57138;51.326;-0.068;2023-04-05T07:40:03;100381.44;;;6.36;71.57
69842;BME280;57138;51.326;-0.068;2023-04-05T07:42:30;100380.81;;;6.42;71.47
69842;BME280;57138;51.326;-0.068;2023-04-05T07:44:56;100377.00;;;6.45;71.49
69842;BME280;57138;51.326;-0.068;2023-04-05T07:47:21;100376.19;;;6.44;69.85
69842;BME280;57138;51.326;-0.068;2023-04-05T07:49:47;100379.81;;;6.43;70.38
69842;BME280;57138;51.326;-0.068;2023-04-05T07:52:13;100377.47;;;6.40;71.04
69842;BME280;57138;51.326;-0.068;2023-04-05T07:54:38;100372.00;;;6.42;71.20
69842;BME280;57138;51.326;-0.068;2023-04-05T07:57:05;100368.88;;;6.46;71.47
69842;BME280;57138;51.326;-0.068;2023-04-05T07:59:31;100371.59;;;6.55;71.20
69842;BME280;57138;51.326;-0.068;2023-04-05T08:01:56;100371.94;;;6.60;71.02
69842;BME280;57138;51.326;-0.068;2023-04-05T08:04:22;100358.00;;;6.58;71.13
69842;BME280;57138;51.326;-0.068;2023-04-05T08:06:50;100366.66;;;6.68;71.18
69842;BME280;57138;51.326;-0.068;2023-04-05T08:09:15;100374.16;;;6.73;71.32
69842;BME280;57138;51.326;-0.068;2023-04-05T08:11:41;100370.34;;;6.75;70.43
69842;BME280;57138;51.326;-0.068;2023-04-05T08:14:07;100364.06;;;6.76;70.84
69842;BME280;57138;51.326;-0.068;2023-04-05T08:16:32;100370.38;;;6.83;70.57
69842;BME280;57138;51.326;-0.068;2023-04-05T08:18:58;100362.75;;;6.89;70.82
69842;BME280;57138;51.326;-0.068;2023-04-05T08:21:23;100370.44;;;7.00;71.13
69842;BME280;57138;51.326;-0.068;2023-04-05T08:23:49;100372.09;;;7.01;69.83
69842;BME280;57138;51.326;-0.068;2023-04-05T08:26:15;100370.13;;;7.03;70.43
69842;BME280;57138;51.326;-0.068;2023-04-05T08:28:41;100365.13;;;7.08;70.81
69842;BME280;57138;51.326;-0.068;2023-04-05T08:31:06;100362.50;;;7.16;69.97
69842;BME280;57138;51.326;-0.068;2023-04-05T08:33:32;100363.69;;;7.22;70.47
69842;BME280;57138;51.326;-0.068;2023-04-05T08:36:11;100367.19;;;7.31;69.17
69842;BME280;57138;51.326;-0.068;2023-04-05T08:38:36;100365.84;;;7.35;69.30
69842;BME280;57138;51.326;-0.068;2023-04-05T08:43:43;100371.66;;;7.38;68.78
69842;BME280;57138;51.326;-0.068;2023-04-05T08:46:13;100362.22;;;7.44;69.01
69842;BME280;57138;51.326;-0.068;2023-04-05T08:48:40;100372.19;;;7.50;69.17
69842;BME280;57138;51.326;-0.068;2023-04-05T08:51:06;100371.22;;;7.60;68.91
69842;BME280;57138;51.326;-0.068;2023-04-05T08:53:33;100376.38;;;7.69;69.19
69842;BME280;57138;51.326;-0.068;2023-04-05T08:55:59;100365.38;;;7.72;68.59
69842;BME280;57138;51.326;-0.068;2023-04-05T08:58:27;100365.75;;;7.78;68.40
69842;BME280;57138;51.326;-0.068;2023-04-05T09:00:54;100358.06;;;7.83;67.99
69842;BME280;57138;51.326;-0.068;2023-04-05T09:03:22;100359.91;;;7.82;67.38
69842;BME280;57138;51.326;-0.068;2023-04-05T09:05:52;100362.09;;;7.87;67.83
69842;BME280;57138;51.326;-0.068;2023-04-05T09:08:18;100350.06;;;7.91;67.52
69842;BME280;57138;51.326;-0.068;2023-04-05T09:10:48;100341.41;;;7.97;67.34
69842;BME280;57138;51.326;-0.068;2023-04-05T09:13:15;100350.72;;;8.09;66.92
69842;BME280;57138;51.326;-0.068;2023-04-05T09:15:40;100341.25;;;8.15;66.84
69842;BME280;57138;51.326;-0.068;2023-04-05T09:18:06;100337.25;;;8.11;65.46
69842;BME280;57138;51.326;-0.068;2023-04-05T09:20:31;100340.22;;;8.16;65.16
69842;BME280;57138;51.326;-0.068;2023-04-05T09:22:57;100332.25;;;8.08;64.85
69842;BME280;57138;51.326;-0.068;2023-04-05T09:25:39;100338.06;;;8.12;64.86
69842;BME280;57138;51.326;-0.068;2023-04-05T09:28:09;100343.38;;;8.12;64.85
69842;BME280;57138;51.326;-0.068;2023-04-05T09:30:35;100337.22;;;8.19;65.71
69842;BME280;57138;51.326;-0.068;2023-04-05T09:33:02;100338.50;;;8.32;65.89
69842;BME280;57138;51.326;-0.068;2023-04-05T09:35:30;100337.31;;;8.51;65.70
69842;BME280;57138;51.326;-0.068;2023-04-05T09:38:03;100333.78;;;8.67;64.69
69842;BME280;57138;51.326;-0.068;2023-04-05T09:40:45;100336.22;;;8.76;64.22
69842;BME280;57138;51.326;-0.068;2023-04-05T09:43:12;100333.03;;;8.81;64.14
69842;BME280;57138;51.326;-0.068;2023-04-05T09:45:39;100314.72;;;8.78;63.80
69842;BME280;57138;51.326;-0.068;2023-04-05T09:48:06;100326.31;;;8.93;64.29
69842;BME280;57138;51.326;-0.068;2023-04-05T09:50:33;100324.56;;;9.09;63.49
69842;BME280;57138;51.326;-0.068;2023-04-05T09:53:09;100319.47;;;9.22;62.19
69842;BME280;57138;51.326;-0.068;2023-04-05T09:55:40;100322.25;;;9.29;61.16
69842;BME280;57138;51.326;-0.068;2023-04-05T09:58:11;100313.41;;;9.28;61.51
69842;BME280;57138;51.326;-0.068;2023-04-05T10:00:37;100314.00;;;9.39;61.54
69842;BME280;57138;51.326;-0.068;2023-04-05T10:03:03;100315.53;;;9.56;61.32
69842;BME280;57138;51.326;-0.068;2023-04-05T10:05:29;100321.13;;;9.69;60.10
69842;BME280;57138;51.326;-0.068;2023-04-05T10:07:56;100305.19;;;9.76;59.94
69842;BME280;57138;51.326;-0.068;2023-04-05T10:10:23;100306.59;;;9.87;59.21
69842;BME280;57138;51.326;-0.068;2023-04-05T10:12:49;100310.66;;;9.98;58.40
69842;BME280;57138;51.326;-0.068;2023-04-05T10:15:16;100306.31;;;9.97;58.96
69842;BME280;57138;51.326;-0.068;2023-04-05T10:17:47;100307.44;;;10.02;58.71
69842;BME280;57138;51.326;-0.068;2023-04-05T10:23:00;100313.69;;;10.10;55.68
69842;BME280;57138;51.326;-0.068;2023-04-05T10:33:39;100305.97;;;10.00;55.05
69842;BME280;57138;51.326;-0.068;2023-04-05T10:36:30;100304.03;;;10.08;55.83
69842;BME280;57138;51.326;-0.068;2023-04-05T10:41:46;100294.94;;;10.18;55.78
69842;BME280;57138;51.326;-0.068;2023-04-05T10:44:14;100294.47;;;10.29;57.18
69842;BME280;57138;51.326;-0.068;2023-04-05T10:46:40;100285.81;;;10.42;57.77
69842;BME280;57138;51.326;-0.068;2023-04-05T10:49:21;100281.16;;;10.66;57.56
69842;BME280;57138;51.326;-0.068;2023-04-05T10:51:49;100274.00;;;10.66;54.71
69842;BME280;57138;51.326;-0.068;2023-04-05T10:54:16;100280.59;;;10.70;55.88
69842;BME280;57138;51.326;-0.068;2023-04-05T10:56:44;100287.44;;;10.73;52.48
69842;BME280;57138;51.326;-0.068;2023-04-05T10:59:11;100280.16;;;10.67;51.19
69842;BME280;57138;51.326;-0.068;2023-04-05T11:01:38;100279.72;;;10.63;53.26
69842;BME280;57138;51.326;-0.068;2023-04-05T11:04:15;100281.91;;;10.74;53.13
69842;BME280;57138;51.326;-0.068;2023-04-05T11:06:41;100275.03;;;10.87;52.95
69842;BME280;57138;51.326;-0.068;2023-04-05T11:09:09;100272.25;;;10.95;52.74
69842;BME280;57138;51.326;-0.068;2023-04-05T11:11:39;100277.09;;;11.06;53.27
69842;BME280;57138;51.326;-0.068;2023-04-05T11:14:33;100262.84;;;11.21;52.26
69842;BME280;57138;51.326;-0.068;2023-04-05T11:17:00;100263.97;;;11.33;53.43
69842;BME280;57138;51.326;-0.068;2023-04-05T11:20:04;100265.31;;;11.44;52.22
69842;BME280;57138;51.326;-0.068;2023-04-05T11:22:30;100265.34;;;11.50;52.94
69842;BME280;57138;51.326;-0.068;2023-04-05T11:24:57;100260.63;;;11.52;52.39
69842;BME280;57138;51.326;-0.068;2023-04-05T11:29:52;100256.00;;;11.68;52.35
69842;BME280;57138;51.326;-0.068;2023-04-05T11:32:19;100259.19;;;11.78;53.62
69842;BME280;57138;51.326;-0.068;2023-04-05T11:35:04;100249.59;;;11.91;52.90
69842;BME280;57138;51.326;-0.068;2023-04-05T11:37:53;100245.38;;;12.03;52.16
69842;BME280;57138;51.326;-0.068;2023-04-05T11:40:30;100237.97;;;12.12;51.69
69842;BME280;57138;51.326;-0.068;2023-04-05T11:43:09;100230.31;;;12.02;51.22
69842;BME280;57138;51.326;-0.068;2023-04-05T11:45:40;100231.19;;;12.09;52.48
69842;BME280;57138;51.326;-0.068;2023-04-05T11:48:11;100231.03;;;12.31;52.17
69842;BME280;57138;51.326;-0.068;2023-04-05T11:50:39;100229.28;;;12.51;52.37
69842;BME280;57138;51.326;-0.068;2023-04-05T11:53:16;100222.94;;;12.66;51.63
69842;BME280;57138;51.326;-0.068;2023-04-05T11:55:46;100221.53;;;12.83;51.13
69842;BME280;57138;51.326;-0.068;2023-04-05T12:00:45;100227.31;;;12.80;51.66
69842;BME280;57138;51.326;-0.068;2023-04-05T12:03:12;100215.31;;;12.76;52.03
69842;BME280;57138;51.326;-0.068;2023-04-05T12:05:46;100216.97;;;12.77;51.56
69842;BME280;57138;51.326;-0.068;2023-04-05T12:08:12;100205.22;;;12.78;52.86
69842;BME280;57138;51.326;-0.068;2023-04-05T12:10:38;100209.78;;;12.91;52.43
69842;BME280;57138;51.326;-0.068;2023-04-05T12:13:04;100205.47;;;13.10;51.80
69842;BME280;57138;51.326;-0.068;2023-04-05T12:15:30;100200.31;;;13.22;51.49
69842;BME280;57138;51.326;-0.068;2023-04-05T12:17:55;100206.69;;;13.27;48.65
69842;BME280;57138;51.326;-0.068;2023-04-05T12:20:23;100205.06;;;13.26;45.90
69842;BME280;57138;51.326;-0.068;2023-04-05T12:22:54;100194.75;;;13.23;46.75
69842;BME280;57138;51.326;-0.068;2023-04-05T12:25:20;100193.31;;;13.34;46.98
69842;BME280;57138;51.326;-0.068;2023-04-05T12:27:47;100193.91;;;13.43;46.99
69842;BME280;57138;51.326;-0.068;2023-04-05T12:30:18;100194.53;;;13.52;44.88
69842;BME280;57138;51.326;-0.068;2023-04-05T12:32:49;100201.78;;;13.51;44.73
69842;BME280;57138;51.326;-0.068;2023-04-05T12:35:18;100191.88;;;13.45;42.99
69842;BME280;57138;51.326;-0.068;2023-04-05T12:37:44;100191.44;;;13.35;45.70
69842;BME280;57138;51.326;-0.068;2023-04-05T12:40:11;100196.38;;;13.24;45.05
69842;BME280;57138;51.326;-0.068;2023-04-05T12:42:38;100190.00;;;13.12;46.19
69842;BME280;57138;51.326;-0.068;2023-04-05T12:45:08;100193.50;;;13.06;46.35
69842;BME280;57138;51.326;-0.068;2023-04-05T12:47:34;100188.75;;;13.08;46.38
69842;BME280;57138;51.326;-0.068;2023-04-05T12:50:11;100193.28;;;13.14;46.11
69842;BME280;57138;51.326;-0.068;2023-04-05T12:52:37;100199.25;;;13.23;46.64
69842;BME280;57138;51.326;-0.068;2023-04-05T12:55:02;100198.84;;;13.19;46.21
69842;BME280;57138;51.326;-0.068;2023-04-05T12:57:30;100201.13;;;13.16;45.76
69842;BME280;57138;51.326;-0.068;2023-04-05T12:59:56;100180.28;;;13.11;45.48
69842;BME280;57138;51.326;-0.068;2023-04-05T13:02:21;100196.38;;;13.11;45.89
69842;BME280;57138;51.326;-0.068;2023-04-05T13:04:47;100184.84;;;13.10;45.90
69842;BME280;57138;51.326;-0.068;2023-04-05T13:07:14;100190.19;;;13.17;45.35
69842;BME280;57138;51.326;-0.068;2023-04-05T13:09:39;100193.28;;;13.21;45.48
69842;BME280;57138;51.326;-0.068;2023-04-05T13:12:05;100182.34;;;13.09;44.88
69842;BME280;57138;51.326;-0.068;2023-04-05T13:14:30;100181.06;;;12.91;45.96
69842;BME280;57138;51.326;-0.068;2023-04-05T13:16:56;100186.25;;;12.86;46.68
69842;BME280;57138;51.326;-0.068;2023-04-05T13:19:22;100167.66;;;12.78;47.28
69842;BME280;57138;51.326;-0.068;2023-04-05T13:21:47;100167.63;;;12.71;47.14